createdAt,value
2019-01-22T00:00:02.918Z,1006.41
2019-01-22T00:01:08.421Z,1006.36
2019-01-22T00:02:13.935Z,1006.34
2019-01-22T00:03:19.411Z,1006.32
2019-01-22T00:04:24.897Z,1006.32
2019-01-22T00:05:31.456Z,1006.29
2019-01-22T00:06:35.922Z,1006.28
2019-01-22T00:07:41.411Z,1006.28
2019-01-22T00:08:46.902Z,1006.21
2019-01-22T00:09:52.412Z,1006.20
2019-01-22T00:10:57.916Z,1006.18
2019-01-22T00:12:04.394Z,1006.13
2019-01-22T00:13:08.916Z,1006.17
2019-01-22T00:14:14.397Z,1006.16
2019-01-22T00:15:19.938Z,1006.08
2019-01-22T00:16:25.397Z,1006.05
2019-01-22T00:17:30.919Z,1006.06
2019-01-22T00:18:37.423Z,1006.03
2019-01-22T00:19:41.891Z,1005.97
2019-01-22T00:20:47.416Z,1005.98
2019-01-22T00:21:52.893Z,1005.93
2019-01-22T00:23:02.782Z,1005.90
2019-01-22T00:24:03.937Z,1005.90
2019-01-22T00:25:10.417Z,1005.88
2019-01-22T00:26:14.887Z,1005.85
2019-01-22T00:27:20.417Z,1005.84
2019-01-22T00:28:25.902Z,1005.79
2019-01-22T00:29:31.414Z,1005.85
2019-01-22T00:30:36.945Z,1005.82
2019-01-22T00:31:43.425Z,1005.76
2019-01-22T00:32:47.900Z,1005.77
2019-01-22T00:33:53.400Z,1005.75
2019-01-22T00:34:58.912Z,1005.71
2019-01-22T00:36:04.415Z,1005.71
2019-01-22T00:37:09.906Z,1005.69
2019-01-22T00:38:16.422Z,1005.65
2019-01-22T00:39:20.921Z,1005.69
2019-01-22T00:40:26.399Z,1005.68
2019-01-22T00:41:31.916Z,1005.69
2019-01-22T00:42:37.428Z,1005.64
2019-01-22T00:43:42.901Z,1005.65
2019-01-22T00:44:49.434Z,1005.64
2019-01-22T00:45:53.895Z,1005.61
2019-01-22T00:46:59.403Z,1005.63
2019-01-22T00:48:04.922Z,1005.61
2019-01-22T00:49:10.423Z,1005.57
2019-01-22T00:50:15.923Z,1005.61
2019-01-22T00:51:22.424Z,1005.56
2019-01-22T00:52:26.880Z,1005.55
2019-01-22T00:53:32.418Z,1005.52
2019-01-22T00:54:37.911Z,1005.52
2019-01-22T00:55:43.412Z,1005.52
2019-01-22T00:56:48.892Z,1005.47
2019-01-22T00:57:55.408Z,1005.45
2019-01-22T00:58:59.895Z,1005.41
2019-01-22T01:00:05.399Z,1005.40
2019-01-22T01:01:10.928Z,1005.41
2019-01-22T01:02:16.384Z,1005.38
2019-01-22T01:03:21.893Z,1005.40
2019-01-22T01:04:28.406Z,1005.38
2019-01-22T01:05:32.895Z,1005.40
2019-01-22T01:06:38.403Z,1005.37
2019-01-22T01:07:43.896Z,1005.34
2019-01-22T01:08:49.402Z,1005.37
2019-01-22T01:09:54.916Z,1005.36
2019-01-22T01:11:01.414Z,1005.33
2019-01-22T01:12:05.906Z,1005.27
2019-01-22T01:13:11.446Z,1005.32
2019-01-22T01:14:16.893Z,1005.31
2019-01-22T01:15:22.399Z,1005.28
2019-01-22T01:16:27.891Z,1005.26
2019-01-22T01:17:34.407Z,1005.24
2019-01-22T01:18:38.892Z,1005.24
2019-01-22T01:19:44.405Z,1005.18
2019-01-22T01:20:49.900Z,1005.22
2019-01-22T01:21:55.391Z,1005.19
2019-01-22T01:23:00.890Z,1005.20
2019-01-22T01:24:07.399Z,1005.17
2019-01-22T01:25:11.908Z,1005.16
2019-01-22T01:26:17.404Z,1005.11
2019-01-22T01:27:22.900Z,1005.13
2019-01-22T01:28:28.392Z,1005.09
2019-01-22T01:29:33.892Z,1005.06
2019-01-22T01:30:40.404Z,1005.05
2019-01-22T01:31:44.889Z,1005.03
2019-01-22T01:32:50.393Z,1004.99
2019-01-22T01:33:55.913Z,1004.94
2019-01-22T01:35:01.364Z,1004.98
2019-01-22T01:36:06.902Z,1004.92
2019-01-22T01:37:13.413Z,1004.96
2019-01-22T01:38:17.903Z,1004.89
2019-01-22T01:39:23.396Z,1004.85
2019-01-22T01:40:28.929Z,1004.81
2019-01-22T01:41:34.391Z,1004.81
2019-01-22T01:42:39.886Z,1004.78
2019-01-22T01:43:46.426Z,1004.80
2019-01-22T01:44:50.892Z,1004.77
2019-01-22T01:45:56.384Z,1004.75
2019-01-22T01:47:01.901Z,1004.75
2019-01-22T01:48:07.390Z,1004.76
2019-01-22T01:49:12.841Z,1004.67
2019-01-22T01:50:19.405Z,1004.64
2019-01-22T01:51:23.870Z,1004.59
2019-01-22T01:52:29.400Z,1004.58
2019-01-22T01:53:34.911Z,1004.58
2019-01-22T01:54:40.398Z,1004.59
2019-01-22T01:55:45.909Z,1004.58
2019-01-22T01:56:52.403Z,1004.56
2019-01-22T01:57:56.884Z,1004.52
2019-01-22T01:59:02.392Z,1004.50
2019-01-22T02:00:07.877Z,1004.52
2019-01-22T02:01:13.420Z,1004.49
2019-01-22T02:02:18.888Z,1004.52
2019-01-22T02:03:25.405Z,1004.46
2019-01-22T02:04:29.890Z,1004.45
2019-01-22T02:05:35.376Z,1004.40
2019-01-22T02:06:40.884Z,1004.40
2019-01-22T02:07:46.368Z,1004.39
2019-01-22T02:08:51.886Z,1004.36
2019-01-22T02:09:58.393Z,1004.33
2019-01-22T02:11:02.886Z,1004.32
2019-01-22T02:12:08.388Z,1004.25
2019-01-22T02:13:13.874Z,1004.24
2019-01-22T02:14:19.392Z,1004.19
2019-01-22T02:15:24.876Z,1004.16
2019-01-22T02:16:31.396Z,1004.12
2019-01-22T02:17:35.884Z,1004.17
2019-01-22T02:18:41.385Z,1004.14
2019-01-22T02:19:46.881Z,1004.10
2019-01-22T02:20:52.374Z,1004.10
2019-01-22T02:21:57.857Z,1004.07
2019-01-22T02:23:04.392Z,1004.11
2019-01-22T02:24:08.875Z,1004.07
2019-01-22T02:25:14.377Z,1004.05
2019-01-22T02:26:19.889Z,1004.04
2019-01-22T02:27:25.378Z,1004.04
2019-01-22T02:28:30.891Z,1004.00
2019-01-22T02:29:37.390Z,1003.95
2019-01-22T02:30:41.862Z,1003.97
2019-01-22T02:31:47.371Z,1003.93
2019-01-22T02:32:52.895Z,1003.90
2019-01-22T02:33:58.377Z,1003.91
2019-01-22T02:35:03.885Z,1003.91
2019-01-22T02:36:10.433Z,1003.85
2019-01-22T02:37:14.886Z,1003.83
2019-01-22T02:38:20.397Z,1003.82
2019-01-22T02:39:25.871Z,1003.83
2019-01-22T02:40:31.379Z,1003.79
2019-01-22T02:41:36.888Z,1003.80
2019-01-22T02:42:43.364Z,1003.76
2019-01-22T02:43:47.880Z,1003.71
2019-01-22T02:44:53.353Z,1003.64
2019-01-22T02:45:58.865Z,1003.63
2019-01-22T02:47:04.376Z,1003.58
2019-01-22T02:48:09.866Z,1003.60
2019-01-22T02:49:16.377Z,1003.54
2019-01-22T02:50:22.162Z,1003.53
2019-01-22T02:51:26.375Z,1003.54
2019-01-22T02:52:31.877Z,1003.49
2019-01-22T02:53:38.856Z,1003.43
2019-01-22T02:54:42.869Z,1003.39
2019-01-22T02:55:49.390Z,1003.36
2019-01-22T02:56:53.871Z,1003.32
2019-01-22T02:57:59.356Z,1003.28
2019-01-22T02:59:04.890Z,1003.24
2019-01-22T03:00:10.350Z,1003.22
2019-01-22T03:01:15.842Z,1003.23
2019-01-22T03:02:22.375Z,1003.17
2019-01-22T03:03:26.848Z,1003.14
2019-01-22T03:04:32.369Z,1003.08
2019-01-22T03:05:37.867Z,1003.10
2019-01-22T03:06:43.372Z,1003.05
2019-01-22T03:07:48.871Z,1003.06
2019-01-22T03:08:55.364Z,1003.05
2019-01-22T03:09:59.855Z,1003.01
2019-01-22T03:11:05.364Z,1003.00
2019-01-22T03:12:10.852Z,1002.93
2019-01-22T03:13:16.375Z,1002.95
2019-01-22T03:14:21.856Z,1002.92
2019-01-22T03:15:28.356Z,1002.89
2019-01-22T03:16:32.873Z,1002.89
2019-01-22T03:17:38.351Z,1002.89
2019-01-22T03:18:43.843Z,1002.85
2019-01-22T03:19:49.337Z,1002.84
2019-01-22T03:20:54.863Z,1002.83
2019-01-22T03:22:01.364Z,1002.81
2019-01-22T03:23:05.853Z,1002.86
2019-01-22T03:24:11.354Z,1002.83
2019-01-22T03:25:16.825Z,1002.81
2019-01-22T03:26:22.339Z,1002.81
2019-01-22T03:27:27.863Z,1002.80
2019-01-22T03:28:34.362Z,1002.77
2019-01-22T03:29:38.818Z,1002.76
2019-01-22T03:30:44.345Z,1002.77
2019-01-22T03:31:49.841Z,1002.74
2019-01-22T03:32:55.346Z,1002.72
2019-01-22T03:34:00.818Z,1002.66
2019-01-22T03:35:07.348Z,1002.64
2019-01-22T03:36:11.843Z,1002.59
2019-01-22T03:37:17.346Z,1002.57
2019-01-22T03:38:22.856Z,1002.51
2019-01-22T03:39:28.355Z,1002.51
2019-01-22T03:40:33.852Z,1002.52
2019-01-22T03:41:40.373Z,1002.50
2019-01-22T03:42:44.848Z,1002.51
2019-01-22T03:43:50.345Z,1002.49
2019-01-22T03:44:55.825Z,1002.46
2019-01-22T03:46:01.337Z,1002.47
2019-01-22T03:47:06.847Z,1002.43
2019-01-22T03:48:13.356Z,1002.48
2019-01-22T03:49:17.812Z,1002.49
2019-01-22T03:50:23.353Z,1002.44
2019-01-22T03:51:28.859Z,1002.50
2019-01-22T03:52:34.322Z,1002.42
2019-01-22T03:53:39.888Z,1002.42
2019-01-22T03:54:46.349Z,1002.43
2019-01-22T03:55:50.830Z,1002.42
2019-01-22T03:56:56.318Z,1002.38
2019-01-22T03:58:01.850Z,1002.39
2019-01-22T03:59:07.330Z,1002.36
2019-01-22T04:00:12.841Z,1002.32
2019-01-22T04:01:20.644Z,1002.36
2019-01-22T04:02:23.847Z,1002.33
2019-01-22T04:03:29.340Z,1002.29
2019-01-22T04:04:34.838Z,1002.29
2019-01-22T04:05:40.332Z,1002.28
2019-01-22T04:06:45.841Z,1002.26
2019-01-22T04:07:52.390Z,1002.26
2019-01-22T04:08:56.850Z,1002.27
2019-01-22T04:10:02.361Z,1002.22
2019-01-22T04:11:07.825Z,1002.24
2019-01-22T04:12:13.338Z,1002.16
2019-01-22T04:13:18.849Z,1002.16
2019-01-22T04:14:25.366Z,1002.14
2019-01-22T04:15:29.838Z,1002.13
2019-01-22T04:16:35.363Z,1002.12
2019-01-22T04:17:40.835Z,1002.10
2019-01-22T04:18:46.331Z,1002.07
2019-01-22T04:19:51.859Z,1002.08
2019-01-22T04:20:58.358Z,1002.05
2019-01-22T04:22:02.852Z,1002.05
2019-01-22T04:23:08.335Z,1002.06
2019-01-22T04:24:13.849Z,1002.02
2019-01-22T04:25:19.355Z,1001.98
2019-01-22T04:26:24.831Z,1001.96
2019-01-22T04:27:31.360Z,1001.95
2019-01-22T04:28:35.843Z,1001.93
2019-01-22T04:29:41.358Z,1001.89
2019-01-22T04:30:46.860Z,1001.89
2019-01-22T04:31:52.342Z,1001.87
2019-01-22T04:32:57.853Z,1001.87
2019-01-22T04:34:04.358Z,1001.85
2019-01-22T04:35:08.851Z,1001.83
2019-01-22T04:36:14.338Z,1001.79
2019-01-22T04:37:19.847Z,1001.77
2019-01-22T04:38:25.351Z,1001.79
2019-01-22T04:39:30.848Z,1001.73
2019-01-22T04:40:37.298Z,1001.75
2019-01-22T04:41:41.841Z,1001.72
2019-01-22T04:42:47.334Z,1001.70
2019-01-22T04:43:52.847Z,1001.66
2019-01-22T04:44:58.351Z,1001.68
2019-01-22T04:46:03.806Z,1001.66
2019-01-22T04:47:10.360Z,1001.66
2019-01-22T04:48:14.832Z,1001.68
2019-01-22T04:49:20.340Z,1001.62
2019-01-22T04:50:25.853Z,1001.62
2019-01-22T04:51:31.345Z,1001.56
2019-01-22T04:52:36.825Z,1001.54
2019-01-22T04:53:43.370Z,1001.51
2019-01-22T04:54:47.822Z,1001.52
2019-01-22T04:55:53.358Z,1001.49
2019-01-22T04:56:58.833Z,1001.50
2019-01-22T04:58:04.332Z,1001.42
2019-01-22T04:59:09.878Z,1001.45
2019-01-22T05:00:16.357Z,1001.40
2019-01-22T05:01:20.839Z,1001.35
2019-01-22T05:02:26.322Z,1001.36
2019-01-22T05:03:31.842Z,1001.33
2019-01-22T05:04:37.323Z,1001.31
2019-01-22T05:05:42.859Z,1001.29
2019-01-22T05:06:49.316Z,1001.26
2019-01-22T05:07:53.864Z,1001.26
2019-01-22T05:08:59.356Z,1001.26
2019-01-22T05:10:04.790Z,1001.27
2019-01-22T05:11:10.358Z,1001.28
2019-01-22T05:12:15.845Z,1001.25
2019-01-22T05:13:22.414Z,1001.28
2019-01-22T05:14:26.834Z,1001.22
2019-01-22T05:15:32.336Z,1001.20
2019-01-22T05:16:37.846Z,1001.22
2019-01-22T05:17:43.333Z,1001.18
2019-01-22T05:18:48.825Z,1001.16
2019-01-22T05:19:55.344Z,1001.13
2019-01-22T05:20:59.845Z,1001.15
2019-01-22T05:22:05.343Z,1001.14
2019-01-22T05:23:10.847Z,1001.13
2019-01-22T05:24:17.842Z,1001.14
2019-01-22T05:25:21.836Z,1001.11
2019-01-22T05:26:28.344Z,1001.09
2019-01-22T05:27:32.832Z,1001.13
2019-01-22T05:28:38.334Z,1001.11
2019-01-22T05:29:43.831Z,1001.12
2019-01-22T05:30:49.302Z,1001.14
2019-01-22T05:31:54.831Z,1001.13
2019-01-22T05:33:01.333Z,1001.13
2019-01-22T05:34:05.829Z,1001.14
2019-01-22T05:35:11.322Z,1001.11
2019-01-22T05:36:16.850Z,1001.11
2019-01-22T05:37:22.287Z,1001.12
2019-01-22T05:38:27.838Z,1001.07
2019-01-22T05:39:34.345Z,1001.10
2019-01-22T05:40:38.839Z,1001.05
2019-01-22T05:41:44.324Z,1001.08
2019-01-22T05:42:49.836Z,1001.02
2019-01-22T05:43:55.324Z,1001.01
2019-01-22T05:45:00.817Z,1000.98
2019-01-22T05:46:07.341Z,1000.98
2019-01-22T05:47:11.821Z,1000.98
2019-01-22T05:48:17.304Z,1000.96
2019-01-22T05:49:23.003Z,1000.95
2019-01-22T05:50:28.329Z,1000.93
2019-01-22T05:51:33.818Z,1000.91
2019-01-22T05:52:40.338Z,1000.91
2019-01-22T05:53:44.826Z,1000.87
2019-01-22T05:54:50.333Z,1000.90
2019-01-22T05:55:55.820Z,1000.87
2019-01-22T05:57:01.320Z,1000.85
2019-01-22T05:58:06.825Z,1000.86
2019-01-22T05:59:13.326Z,1000.84
2019-01-22T06:00:17.830Z,1000.77
2019-01-22T06:01:23.355Z,1000.81
2019-01-22T06:02:28.819Z,1000.75
2019-01-22T06:03:34.335Z,1000.75
2019-01-22T06:04:39.823Z,1000.73
2019-01-22T06:05:46.345Z,1000.75
2019-01-22T06:06:50.836Z,1000.70
2019-01-22T06:07:56.319Z,1000.70
2019-01-22T06:09:01.825Z,1000.69
2019-01-22T06:10:07.305Z,1000.67
2019-01-22T06:11:12.816Z,1000.69
2019-01-22T06:12:19.350Z,1000.70
2019-01-22T06:13:23.830Z,1000.65
2019-01-22T06:14:29.332Z,1000.61
2019-01-22T06:15:34.828Z,1000.59
2019-01-22T06:16:40.310Z,1000.59
2019-01-22T06:17:45.846Z,1000.59
2019-01-22T06:18:52.362Z,1000.54
2019-01-22T06:19:56.818Z,1000.59
2019-01-22T06:21:02.348Z,1000.53
2019-01-22T06:22:07.828Z,1000.55
2019-01-22T06:23:13.348Z,1000.54
2019-01-22T06:24:18.829Z,1000.48
2019-01-22T06:25:25.335Z,1000.48
2019-01-22T06:26:29.822Z,1000.45
2019-01-22T06:27:35.326Z,1000.41
2019-01-22T06:28:40.822Z,1000.40
2019-01-22T06:29:46.330Z,1000.40
2019-01-22T06:30:51.827Z,1000.34
2019-01-22T06:31:58.335Z,1000.33
2019-01-22T06:33:02.834Z,1000.31
2019-01-22T06:34:08.324Z,1000.31
2019-01-22T06:35:13.831Z,1000.28
2019-01-22T06:36:19.327Z,1000.25
2019-01-22T06:37:24.905Z,1000.22
2019-01-22T06:38:31.326Z,1000.19
2019-01-22T06:39:35.825Z,1000.20
2019-01-22T06:40:41.322Z,1000.21
2019-01-22T06:41:46.836Z,1000.19
2019-01-22T06:42:52.324Z,1000.18
2019-01-22T06:43:57.816Z,1000.17
2019-01-22T06:45:04.329Z,1000.13
2019-01-22T06:46:08.829Z,1000.06
2019-01-22T06:47:14.338Z,1000.08
2019-01-22T06:48:19.830Z,1000.06
2019-01-22T06:49:25.326Z,1000.12
2019-01-22T06:50:30.824Z,1000.09
2019-01-22T06:51:37.358Z,1000.10
2019-01-22T06:52:41.828Z,1000.07
2019-01-22T06:53:47.326Z,1000.08
2019-01-22T06:54:52.817Z,1000.06
2019-01-22T06:55:58.340Z,1000.00
2019-01-22T06:57:03.798Z,1000.01
2019-01-22T06:58:10.347Z,999.96
2019-01-22T06:59:14.826Z,999.95
2019-01-22T07:00:20.316Z,999.92
2019-01-22T07:01:25.828Z,999.92
2019-01-22T07:02:31.329Z,999.89
2019-01-22T07:03:36.827Z,999.89
2019-01-22T07:04:43.312Z,999.86
2019-01-22T07:05:47.831Z,999.89
2019-01-22T07:06:53.338Z,999.86
2019-01-22T07:07:58.832Z,999.83
2019-01-22T07:09:04.322Z,999.81
2019-01-22T07:10:09.815Z,999.80
2019-01-22T07:11:16.326Z,999.78
2019-01-22T07:12:20.829Z,999.73
2019-01-22T07:13:26.336Z,999.72
2019-01-22T07:14:31.806Z,999.62
2019-01-22T07:15:37.314Z,999.62
2019-01-22T07:16:42.827Z,999.59
2019-01-22T07:17:49.344Z,999.58
2019-01-22T07:18:53.827Z,999.54
2019-01-22T07:19:59.339Z,999.55
2019-01-22T07:21:04.769Z,999.48
2019-01-22T07:22:10.317Z,999.54
2019-01-22T07:23:15.867Z,999.48
2019-01-22T07:24:22.305Z,999.48
2019-01-22T07:25:26.803Z,999.44
2019-01-22T07:26:32.317Z,999.38
2019-01-22T07:27:37.836Z,999.40
2019-01-22T07:28:43.324Z,999.39
2019-01-22T07:29:48.823Z,999.36
2019-01-22T07:30:55.344Z,999.40
2019-01-22T07:31:59.819Z,999.38
2019-01-22T07:33:05.322Z,999.38
2019-01-22T07:34:10.856Z,999.33
2019-01-22T07:35:16.344Z,999.30
2019-01-22T07:36:21.826Z,999.28
2019-01-22T07:37:28.339Z,999.25
2019-01-22T07:38:32.828Z,999.20
2019-01-22T07:39:38.348Z,999.23
2019-01-22T07:40:43.819Z,999.19
2019-01-22T07:41:49.334Z,999.17
2019-01-22T07:42:54.777Z,999.16
2019-01-22T07:44:01.342Z,999.16
2019-01-22T07:45:05.810Z,999.09
2019-01-22T07:46:11.347Z,999.11
2019-01-22T07:47:16.830Z,999.09
2019-01-22T07:48:22.335Z,999.08
2019-01-22T07:49:27.849Z,999.05
2019-01-22T07:50:34.350Z,999.05
2019-01-22T07:51:38.829Z,998.98
2019-01-22T07:52:44.350Z,999.03
2019-01-22T07:53:49.826Z,999.01
2019-01-22T07:54:55.623Z,998.97
2019-01-22T07:56:00.833Z,998.97
2019-01-22T07:57:07.347Z,998.98
2019-01-22T07:58:11.777Z,998.96
2019-01-22T07:59:17.312Z,998.98
2019-01-22T08:00:22.827Z,998.93
2019-01-22T08:01:28.305Z,998.92
2019-01-22T08:02:33.849Z,998.91
2019-01-22T08:03:40.346Z,998.89
2019-01-22T08:04:44.887Z,998.87
2019-01-22T08:05:50.319Z,998.88
2019-01-22T08:06:55.825Z,998.88
2019-01-22T08:08:01.320Z,998.93
2019-01-22T08:09:06.827Z,998.92
2019-01-22T08:10:13.333Z,998.95
2019-01-22T08:11:17.841Z,998.90
2019-01-22T08:12:23.350Z,998.87
2019-01-22T08:13:28.843Z,998.87
2019-01-22T08:14:34.334Z,998.85
2019-01-22T08:15:39.849Z,998.87
2019-01-22T08:16:46.356Z,998.86
2019-01-22T08:17:50.827Z,998.87
2019-01-22T08:18:56.331Z,998.85
2019-01-22T08:20:01.793Z,998.86
2019-01-22T08:21:07.337Z,998.86
2019-01-22T08:22:12.838Z,998.83
2019-01-22T08:23:19.880Z,998.86
2019-01-22T08:24:23.839Z,998.87
2019-01-22T08:25:29.338Z,998.86
2019-01-22T08:26:34.843Z,998.83
2019-01-22T08:27:40.323Z,998.84
2019-01-22T08:28:45.829Z,998.83
2019-01-22T08:29:52.347Z,998.81
2019-01-22T08:30:56.838Z,998.78
2019-01-22T08:32:02.351Z,998.74
2019-01-22T08:33:07.859Z,998.76
2019-01-22T08:34:13.343Z,998.75
2019-01-22T08:35:18.840Z,998.75
2019-01-22T08:36:25.339Z,998.75
2019-01-22T08:37:29.830Z,998.70
2019-01-22T08:38:35.396Z,998.69
2019-01-22T08:39:40.848Z,998.67
2019-01-22T08:40:46.338Z,998.65
2019-01-22T08:41:51.861Z,998.64
2019-01-22T08:42:58.360Z,998.63
2019-01-22T08:44:02.870Z,998.59
2019-01-22T08:45:08.359Z,998.61
2019-01-22T08:46:13.856Z,998.60
2019-01-22T08:47:19.348Z,998.65
2019-01-22T08:48:24.846Z,998.66
2019-01-22T08:49:31.354Z,998.64
2019-01-22T08:50:35.862Z,998.63
2019-01-22T08:51:41.366Z,998.62
2019-01-22T08:52:46.852Z,998.61
2019-01-22T08:53:52.359Z,998.62
2019-01-22T08:54:57.848Z,998.61
2019-01-22T08:56:04.360Z,998.55
2019-01-22T08:57:08.866Z,998.57
2019-01-22T08:58:14.348Z,998.55
2019-01-22T08:59:19.877Z,998.47
2019-01-22T09:00:25.414Z,998.48
2019-01-22T09:01:35.360Z,998.44
2019-01-22T09:02:39.660Z,998.44
2019-01-22T09:03:41.871Z,998.47
2019-01-22T09:04:47.375Z,998.47
2019-01-22T09:05:52.884Z,998.41
2019-01-22T09:06:59.075Z,998.37
2019-01-22T09:08:03.875Z,998.37
2019-01-22T09:09:10.397Z,998.33
2019-01-22T09:10:14.885Z,998.34
2019-01-22T09:11:20.399Z,998.32
2019-01-22T09:12:25.891Z,998.35
2019-01-22T09:13:31.383Z,998.32
2019-01-22T09:14:36.900Z,998.28
2019-01-22T09:15:43.399Z,998.23
2019-01-22T09:16:47.901Z,998.15
2019-01-22T09:17:53.416Z,998.16
2019-01-22T09:18:58.901Z,998.16
2019-01-22T09:20:04.394Z,998.14
2019-01-22T09:21:09.888Z,998.11
2019-01-22T09:22:17.525Z,998.11
2019-01-22T09:23:20.914Z,998.15
2019-01-22T09:24:26.394Z,998.08
2019-01-22T09:25:31.911Z,998.07
2019-01-22T09:26:37.414Z,998.05
2019-01-22T09:27:42.905Z,998.05
2019-01-22T09:28:49.430Z,998.05
2019-01-22T09:29:53.949Z,998.03
2019-01-22T09:30:59.414Z,998.02
2019-01-22T09:32:04.921Z,998.02
2019-01-22T09:33:10.425Z,998.00
2019-01-22T09:34:15.923Z,998.01
2019-01-22T09:35:22.431Z,997.95
2019-01-22T09:36:26.933Z,997.92
2019-01-22T09:37:32.435Z,997.92
2019-01-22T09:38:37.927Z,997.90
2019-01-22T09:39:43.421Z,997.90
2019-01-22T09:40:48.951Z,997.85
2019-01-22T09:41:55.403Z,997.87
2019-01-22T09:42:59.931Z,997.92
2019-01-22T09:44:05.436Z,997.84
2019-01-22T09:45:10.954Z,997.88
2019-01-22T09:46:16.461Z,997.81
2019-01-22T09:47:21.941Z,997.80
2019-01-22T09:48:28.445Z,997.81
2019-01-22T09:49:32.979Z,997.72
2019-01-22T09:50:38.451Z,997.70
2019-01-22T09:51:43.936Z,997.77
2019-01-22T09:52:49.464Z,997.74
2019-01-22T09:53:54.975Z,997.69
2019-01-22T09:55:01.489Z,997.71
2019-01-22T09:56:05.965Z,997.68
2019-01-22T09:57:11.442Z,997.68
2019-01-22T09:58:16.994Z,997.64
2019-01-22T09:59:22.471Z,997.63
2019-01-22T10:00:27.984Z,997.60
2019-01-22T10:01:34.479Z,997.65
2019-01-22T10:02:38.984Z,997.61
2019-01-22T10:03:44.518Z,997.58
2019-01-22T10:04:49.998Z,997.57
2019-01-22T10:05:55.461Z,997.54
2019-01-22T10:07:00.998Z,997.56
2019-01-22T10:08:07.514Z,997.49
2019-01-22T10:09:11.983Z,997.48
2019-01-22T10:10:17.491Z,997.45
2019-01-22T10:11:23.008Z,997.41
2019-01-22T10:12:28.508Z,997.44
2019-01-22T10:13:34.016Z,997.42
2019-01-22T10:14:40.523Z,997.37
2019-01-22T10:15:44.986Z,997.37
2019-01-22T10:16:50.522Z,997.36
2019-01-22T10:17:56.010Z,997.30
2019-01-22T10:19:01.532Z,997.30
2019-01-22T10:20:07.028Z,997.27
2019-01-22T10:21:13.537Z,997.25
2019-01-22T10:22:18.036Z,997.21
2019-01-22T10:23:23.581Z,997.22
2019-01-22T10:24:29.049Z,997.15
2019-01-22T10:25:34.759Z,997.14
2019-01-22T10:26:40.065Z,997.15
2019-01-22T10:27:46.580Z,997.06
2019-01-22T10:28:51.063Z,997.04
2019-01-22T10:29:56.565Z,997.00
2019-01-22T10:31:02.060Z,996.96
2019-01-22T10:32:07.553Z,996.95
2019-01-22T10:33:13.071Z,996.99
2019-01-22T10:34:19.606Z,997.00
2019-01-22T10:35:24.025Z,996.89
2019-01-22T10:36:29.569Z,996.94
2019-01-22T10:37:35.100Z,996.91
2019-01-22T10:38:40.523Z,996.91
2019-01-22T10:39:46.092Z,996.88
2019-01-22T10:40:52.598Z,996.83
2019-01-22T10:41:57.086Z,996.83
2019-01-22T10:43:09.018Z,996.78
2019-01-22T10:44:08.090Z,996.77
2019-01-22T10:45:13.630Z,996.73
2019-01-22T10:46:19.119Z,996.68
2019-01-22T10:47:25.658Z,996.62
2019-01-22T10:48:30.112Z,996.63
2019-01-22T10:49:35.651Z,996.65
2019-01-22T10:50:41.132Z,996.56
2019-01-22T10:51:46.629Z,996.53
2019-01-22T10:52:52.133Z,996.52
2019-01-22T10:53:58.629Z,996.50
2019-01-22T10:55:03.126Z,996.50
2019-01-22T10:56:08.606Z,996.45
2019-01-22T10:57:14.120Z,996.47
2019-01-22T10:58:19.663Z,996.50
2019-01-22T10:59:25.133Z,996.47
2019-01-22T11:00:31.657Z,996.45
2019-01-22T11:01:36.132Z,996.42
2019-01-22T11:02:41.678Z,996.34
2019-01-22T11:03:47.182Z,996.31
2019-01-22T11:04:52.658Z,996.32
2019-01-22T11:05:58.163Z,996.29
2019-01-22T11:07:04.690Z,996.27
2019-01-22T11:08:09.130Z,996.31
2019-01-22T11:09:14.693Z,996.29
2019-01-22T11:10:20.184Z,996.24
2019-01-22T11:11:25.698Z,996.23
2019-01-22T11:12:31.192Z,996.14
2019-01-22T11:13:37.724Z,996.16
2019-01-22T11:14:42.171Z,996.14
2019-01-22T11:15:47.708Z,996.13
2019-01-22T11:16:53.209Z,996.12
2019-01-22T11:17:58.706Z,996.11
2019-01-22T11:19:04.215Z,996.09
2019-01-22T11:20:10.720Z,996.09
2019-01-22T11:21:15.223Z,996.08
2019-01-22T11:22:20.747Z,996.10
2019-01-22T11:23:26.282Z,996.09
2019-01-22T11:24:31.742Z,996.08
2019-01-22T11:25:43.311Z,996.10
2019-01-22T11:26:43.760Z,996.07
2019-01-22T11:27:48.244Z,996.03
2019-01-22T11:28:53.766Z,996.01
2019-01-22T11:29:59.276Z,996.06
2019-01-22T11:31:04.774Z,995.98
2019-01-22T11:32:10.262Z,995.89
2019-01-22T11:33:16.786Z,995.91
2019-01-22T11:34:21.271Z,995.89
2019-01-22T11:35:26.835Z,995.83
2019-01-22T11:36:32.315Z,995.88
2019-01-22T11:37:37.785Z,995.82
2019-01-22T11:38:43.255Z,995.82
2019-01-22T11:39:49.834Z,995.82
2019-01-22T11:40:54.270Z,995.81
2019-01-22T11:41:59.833Z,995.77
2019-01-22T11:43:05.266Z,995.78
2019-01-22T11:44:10.828Z,995.76
2019-01-22T11:45:16.331Z,995.70
2019-01-22T11:46:22.825Z,995.73
2019-01-22T11:47:27.297Z,995.70
2019-01-22T11:48:32.838Z,995.68
2019-01-22T11:49:38.305Z,995.67
2019-01-22T11:50:43.841Z,995.61
2019-01-22T11:51:49.376Z,995.62
2019-01-22T11:52:55.811Z,995.60
2019-01-22T11:54:00.345Z,995.59
2019-01-22T11:55:05.841Z,995.60
2019-01-22T11:56:11.372Z,995.60
2019-01-22T11:57:16.864Z,995.61
2019-01-22T11:58:22.365Z,995.63
2019-01-22T11:59:28.918Z,995.58
2019-01-22T12:00:33.391Z,995.56
2019-01-22T12:01:38.884Z,995.49
2019-01-22T12:02:44.381Z,995.47
2019-01-22T12:03:49.870Z,995.48
2019-01-22T12:04:55.424Z,995.48
2019-01-22T12:06:01.900Z,995.48
2019-01-22T12:07:06.408Z,995.45
2019-01-22T12:08:11.928Z,995.46
2019-01-22T12:09:17.462Z,995.45
2019-01-22T12:10:22.928Z,995.45
2019-01-22T12:11:28.450Z,995.38
2019-01-22T12:12:34.918Z,995.32
2019-01-22T12:13:39.428Z,995.36
2019-01-22T12:14:44.931Z,995.36
2019-01-22T12:15:50.448Z,995.38
2019-01-22T12:16:55.912Z,995.35
2019-01-22T12:18:01.429Z,995.33
2019-01-22T12:19:07.939Z,995.25
2019-01-22T12:20:12.441Z,995.34
2019-01-22T12:21:18.485Z,995.26
2019-01-22T12:22:25.031Z,995.27
2019-01-22T12:23:28.963Z,995.25
2019-01-22T12:24:34.485Z,995.23
2019-01-22T12:25:40.974Z,995.20
2019-01-22T12:26:45.473Z,995.21
2019-01-22T12:27:50.953Z,995.25
2019-01-22T12:28:56.482Z,995.23
2019-01-22T12:30:01.979Z,995.20
2019-01-22T12:31:07.484Z,995.16
2019-01-22T12:32:13.988Z,995.17
2019-01-22T12:33:18.488Z,995.12
2019-01-22T12:34:24.035Z,995.14
2019-01-22T12:35:29.540Z,995.05
2019-01-22T12:36:35.029Z,995.10
2019-01-22T12:37:40.522Z,995.04
2019-01-22T12:38:47.053Z,995.12
2019-01-22T12:39:51.539Z,995.04
2019-01-22T12:40:57.058Z,995.04
2019-01-22T12:42:02.602Z,995.02
2019-01-22T12:43:08.053Z,995.05
2019-01-22T12:44:13.565Z,995.09
2019-01-22T12:45:20.100Z,995.04
2019-01-22T12:46:24.598Z,995.01
2019-01-22T12:47:30.065Z,995.00
2019-01-22T12:48:35.580Z,994.97
2019-01-22T12:49:41.101Z,994.99
2019-01-22T12:50:46.567Z,994.92
2019-01-22T12:51:53.119Z,994.88
2019-01-22T12:52:57.654Z,994.92
2019-01-22T12:54:03.120Z,994.90
2019-01-22T12:55:08.616Z,994.89
2019-01-22T12:56:14.114Z,994.86
2019-01-22T12:57:19.648Z,994.79
2019-01-22T12:58:26.119Z,994.85
2019-01-22T12:59:31.357Z,994.77
2019-01-22T13:00:36.116Z,994.82
2019-01-22T13:01:41.627Z,994.80
2019-01-22T13:02:47.141Z,994.76
2019-01-22T13:03:52.640Z,994.73
2019-01-22T13:04:59.182Z,994.76
2019-01-22T13:06:03.670Z,994.73
2019-01-22T13:07:09.152Z,994.72
2019-01-22T13:08:14.664Z,994.64
2019-01-22T13:09:20.192Z,994.65
2019-01-22T13:10:25.686Z,994.64
2019-01-22T13:11:32.152Z,994.64
2019-01-22T13:12:36.677Z,994.64
2019-01-22T13:13:42.153Z,994.59
2019-01-22T13:14:47.688Z,994.57
2019-01-22T13:15:53.221Z,994.54
2019-01-22T13:16:58.722Z,994.53
2019-01-22T13:18:05.208Z,994.50
2019-01-22T13:19:09.690Z,994.53
2019-01-22T13:20:15.185Z,994.51
2019-01-22T13:21:20.732Z,994.48
2019-01-22T13:22:26.197Z,994.47
2019-01-22T13:23:31.709Z,994.41